Shin Mei Maru — JG5617 — position and weather

sailwx.info

Track history (hours):
 
Tides and Currents Weather Stations Pressure Air Temp Water Temp Dewpoint Dewpoint Depression Visibility Wind Speed Wind Dir Waves Ship Positions

Shin Mei Maru

Last reported at 2016-Dec-07 04:33 UTC. Time now 2016-Dec-08 12:00 UTC.
Position N 35°08' E 139°44'.

Length 160 m; draft 6.6 m.

Type: Cargo ship. MMSI: 431100922.

Date/timePositionNaut miles runAvg speedWind from/ knotsBaromVisibWave heightAir tempDewpointWater temp
2016-Dec-07 04:33N 35°08' E 139°44'1313.4
2016-Dec-07 03:33N 35°21' E 139°42'7 7.0
2016-Dec-07 02:33N 35°28' E 139°39'0 0.0
2016-Dec-07 01:31N 35°28' E 139°39'0 0.0
2016-Dec-07 00:31N 35°28' E 139°39'0 0.0
2016-Dec-06 23:31N 35°28' E 139°39'0 0.0
2016-Dec-06 22:28N 35°28' E 139°39'0 0.0
2016-Dec-06 21:31N 35°28' E 139°39'0 0.0
2016-Dec-06 20:31N 35°28' E 139°39'0 0.0
2016-Dec-06 18:31N 35°28' E 139°39'0 0.0
2016-Dec-06 17:28N 35°28' E 139°39'0 0.0
2016-Dec-06 16:31N 35°28' E 139°39'0 0.0
2016-Dec-06 15:31N 35°28' E 139°39'0 0.0
2016-Dec-06 14:31N 35°28' E 139°39'0 0.0
2016-Dec-06 13:31N 35°28' E 139°39'0 0.0
2016-Dec-06 12:31N 35°28' E 139°39'0 0.0
2016-Dec-06 11:31N 35°28' E 139°39'0 0.0
2016-Dec-06 10:31N 35°28' E 139°39'0 0.0
2016-Dec-06 09:31N 35°28' E 139°39'0 0.0
2016-Dec-06 08:31N 35°28' E 139°39'0 0.0
2016-Dec-06 07:31N 35°28' E 139°39'0 0.0
2016-Dec-06 06:31N 35°28' E 139°39'0 0.0
2016-Dec-06 05:31N 35°28' E 139°39'2 1.9
2016-Dec-06 04:34N 35°27' E 139°41'9 9.1
2016-Dec-06 03:33N 35°31' E 139°51'8 8.0
2016-Dec-06 02:31N 35°38' E 139°46'0 0.0
2016-Dec-06 01:31N 35°38' E 139°46'0 0.0
2016-Dec-06 00:28N 35°38' E 139°46'0 0.0
2016-Dec-05 23:31N 35°38' E 139°46'3 3.2
2016-Dec-05 22:33N 35°35' E 139°48'1211.7
2016-Dec-05 21:34N 35°24' E 139°46'1312.7
2016-Dec-05 20:33N 35°11' E 139°47'  
2016-Dec-02 12:33N 35°07' E 139°44'1313.3
2016-Dec-02 11:33N 35°20' E 139°42'1514.8
2016-Dec-02 10:33N 35°34' E 139°49'5 5.3
2016-Dec-02 09:32N 35°38' E 139°46'0 0.0
2016-Dec-02 08:32N 35°38' E 139°46'0 0.0
2016-Dec-02 07:32N 35°38' E 139°46'0 0.0
2016-Dec-02 06:32N 35°38' E 139°46'0 0.0
2016-Dec-02 05:32N 35°38' E 139°46'0 0.0
2016-Dec-02 04:32N 35°38' E 139°46'0 0.0
2016-Dec-02 03:32N 35°38' E 139°46'0 0.0
2016-Dec-02 02:29N 35°38' E 139°46'0 0.0
2016-Dec-02 01:32N 35°38' E 139°46'0 0.0
2016-Dec-02 00:32N 35°38' E 139°46'0 0.0
2016-Dec-01 23:32N 35°38' E 139°46'2 2.4
2016-Dec-01 22:34N 35°36' E 139°47'1211.9
2016-Dec-01 21:33N 35°24' E 139°46'1010.3
2016-Dec-01 20:33N 35°14' E 139°47'  
2016-Nov-28 12:27N 35°00' E 139°42'1516.7
2016-Nov-28 11:33N 35°15' E 139°46'1312.6
2016-Nov-28 10:33N 35°27' E 139°48'1110.9
2016-Nov-28 09:33N 35°38' E 139°46'0 0.1
2016-Nov-28 08:32N 35°38' E 139°46'0 0.0
2016-Nov-28 06:23N 35°38' E 139°46'0 0.0
2016-Nov-28 03:32N 35°38' E 139°46'0 0.0
2016-Nov-28 02:32N 35°38' E 139°46'0 0.0
2016-Nov-28 00:29N 35°38' E 139°46'0 0.0
2016-Nov-27 23:32N 35°38' E 139°46'2 2.4
2016-Nov-27 22:34N 35°36' E 139°47'1312.6
2016-Nov-27 21:33N 35°23' E 139°46'1111.3
2016-Nov-27 20:33N 35°12' E 139°47'  
Track history (hours):
 
Tides and Currents Weather Stations Pressure Air Temp Water Temp Dewpoint Dewpoint Depression Visibility Wind Speed Wind Dir Waves Ship Positions

Shin Mei Maru

Last reported at 2016-Dec-07 04:33 UTC. Time now 2016-Dec-08 12:00 UTC.
Position N 35°08' E 139°44'.

Length 160 m; draft 6.6 m.

Type: Cargo ship. MMSI: 431100922.

Date/timePositionNaut miles runAvg speedWind from/ knotsBaromVisibWave heightAir tempDewpointWater temp
2016-Dec-07 04:33N 35°08' E 139°44'1313.4
2016-Dec-07 03:33N 35°21' E 139°42'7 7.0
2016-Dec-07 02:33N 35°28' E 139°39'0 0.0
2016-Dec-07 01:31N 35°28' E 139°39'0 0.0
2016-Dec-07 00:31N 35°28' E 139°39'0 0.0
2016-Dec-06 23:31N 35°28' E 139°39'0 0.0
2016-Dec-06 22:28N 35°28' E 139°39'0 0.0
2016-Dec-06 21:31N 35°28' E 139°39'0 0.0
2016-Dec-06 20:31N 35°28' E 139°39'0 0.0
2016-Dec-06 18:31N 35°28' E 139°39'0 0.0
2016-Dec-06 17:28N 35°28' E 139°39'0 0.0
2016-Dec-06 16:31N 35°28' E 139°39'0 0.0
2016-Dec-06 15:31N 35°28' E 139°39'0 0.0
2016-Dec-06 14:31N 35°28' E 139°39'0 0.0
2016-Dec-06 13:31N 35°28' E 139°39'0 0.0
2016-Dec-06 12:31N 35°28' E 139°39'0 0.0
2016-Dec-06 11:31N 35°28' E 139°39'0 0.0
2016-Dec-06 10:31N 35°28' E 139°39'0 0.0
2016-Dec-06 09:31N 35°28' E 139°39'0 0.0
2016-Dec-06 08:31N 35°28' E 139°39'0 0.0
2016-Dec-06 07:31N 35°28' E 139°39'0 0.0
2016-Dec-06 06:31N 35°28' E 139°39'0 0.0
2016-Dec-06 05:31N 35°28' E 139°39'2 1.9
2016-Dec-06 04:34N 35°27' E 139°41'9 9.1
2016-Dec-06 03:33N 35°31' E 139°51'8 8.0
2016-Dec-06 02:31N 35°38' E 139°46'0 0.0
2016-Dec-06 01:31N 35°38' E 139°46'0 0.0
2016-Dec-06 00:28N 35°38' E 139°46'0 0.0
2016-Dec-05 23:31N 35°38' E 139°46'3 3.2
2016-Dec-05 22:33N 35°35' E 139°48'1211.7
2016-Dec-05 21:34N 35°24' E 139°46'1312.7
2016-Dec-05 20:33N 35°11' E 139°47'  
2016-Dec-02 12:33N 35°07' E 139°44'1313.3
2016-Dec-02 11:33N 35°20' E 139°42'1514.8
2016-Dec-02 10:33N 35°34' E 139°49'5 5.3
2016-Dec-02 09:32N 35°38' E 139°46'0 0.0
2016-Dec-02 08:32N 35°38' E 139°46'0 0.0
2016-Dec-02 07:32N 35°38' E 139°46'0 0.0
2016-Dec-02 06:32N 35°38' E 139°46'0 0.0
2016-Dec-02 05:32N 35°38' E 139°46'0 0.0
2016-Dec-02 04:32N 35°38' E 139°46'0 0.0
2016-Dec-02 03:32N 35°38' E 139°46'0 0.0
2016-Dec-02 02:29N 35°38' E 139°46'0 0.0
2016-Dec-02 01:32N 35°38' E 139°46'0 0.0
2016-Dec-02 00:32N 35°38' E 139°46'0 0.0
2016-Dec-01 23:32N 35°38' E 139°46'2 2.4
2016-Dec-01 22:34N 35°36' E 139°47'1211.9
2016-Dec-01 21:33N 35°24' E 139°46'1010.3
2016-Dec-01 20:33N 35°14' E 139°47'  
2016-Nov-28 12:27N 35°00' E 139°42'1516.7
2016-Nov-28 11:33N 35°15' E 139°46'1312.6
2016-Nov-28 10:33N 35°27' E 139°48'1110.9
2016-Nov-28 09:33N 35°38' E 139°46'0 0.1
2016-Nov-28 08:32N 35°38' E 139°46'0 0.0
2016-Nov-28 06:23N 35°38' E 139°46'0 0.0
2016-Nov-28 03:32N 35°38' E 139°46'0 0.0
2016-Nov-28 02:32N 35°38' E 139°46'0 0.0
2016-Nov-28 00:29N 35°38' E 139°46'0 0.0
2016-Nov-27 23:32N 35°38' E 139°46'2 2.4
2016-Nov-27 22:34N 35°36' E 139°47'1312.6
2016-Nov-27 21:33N 35°23' E 139°46'1111.3
2016-Nov-27 20:33N 35°12' E 139°47'  

Dump ship's entire track history